Terminal Aerodrome Forecast
Issued by NWS Missoula, MT

Home | Current Version | Previous Version | Text Only | Print | Product List | Glossary On
Versions: 1 2 3 4 5 6 7 8 9 10 11 12 13
000
FTUS45 KMSO 051733
TAFMSO
TAF
KMSO 051733Z 0518/0618 10015G25KT P6SM SCT120
     FM052000 02010G18KT P6SM VCSH BKN100
     FM052200 VRB15G25KT P6SM VCTS BKN080CB
     FM060000 03015G25KT P6SM VCSH BKN080
     FM060400 04012KT P6SM SCT080=

USA.gov is the U.S. government's official web portal to all federal, state and local government web resources and services.